sensor_id;sensor_type;location;lat;lon;timestamp;temperature;humidity
9049;DHT22;4559;47.252;9.592;2022-08-01T00:01:43;22.40;92.10
9049;DHT22;4559;47.252;9.592;2022-08-01T00:04:09;22.30;92.20
9049;DHT22;4559;47.252;9.592;2022-08-01T00:06:34;22.30;92.10
9049;DHT22;4559;47.252;9.592;2022-08-01T00:09:00;22.20;92.20
9049;DHT22;4559;47.252;9.592;2022-08-01T00:11:26;22.10;92.60
9049;DHT22;4559;47.252;9.592;2022-08-01T00:13:52;22.10;93.10
9049;DHT22;4559;47.252;9.592;2022-08-01T00:16:18;22.10;93.10
9049;DHT22;4559;47.252;9.592;2022-08-01T00:18:43;22.10;93.20
9049;DHT22;4559;47.252;9.592;2022-08-01T00:21:09;22.10;93.40
9049;DHT22;4559;47.252;9.592;2022-08-01T00:23:35;22.00;93.80
9049;DHT22;4559;47.252;9.592;2022-08-01T00:26:00;22.00;94.00
9049;DHT22;4559;47.252;9.592;2022-08-01T00:28:26;22.00;94.20
9049;DHT22;4559;47.252;9.592;2022-08-01T00:30:51;22.00;94.20
9049;DHT22;4559;47.252;9.592;2022-08-01T00:33:17;22.00;94.30
9049;DHT22;4559;47.252;9.592;2022-08-01T00:35:43;22.00;94.40
9049;DHT22;4559;47.252;9.592;2022-08-01T00:38:09;22.00;94.20
9049;DHT22;4559;47.252;9.592;2022-08-01T00:40:34;21.90;94.00
9049;DHT22;4559;47.252;9.592;2022-08-01T00:43:00;21.80;93.70
9049;DHT22;4559;47.252;9.592;2022-08-01T00:45:25;21.80;93.70
9049;DHT22;4559;47.252;9.592;2022-08-01T00:47:51;21.80;93.80
9049;DHT22;4559;47.252;9.592;2022-08-01T00:50:17;21.70;93.80
9049;DHT22;4559;47.252;9.592;2022-08-01T00:52:43;21.80;93.80
9049;DHT22;4559;47.252;9.592;2022-08-01T00:55:10;21.80;93.80
9049;DHT22;4559;47.252;9.592;2022-08-01T00:57:37;21.80;93.80
9049;DHT22;4559;47.252;9.592;2022-08-01T01:00:05;21.80;94.00
9049;DHT22;4559;47.252;9.592;2022-08-01T01:02:33;21.80;94.20
9049;DHT22;4559;47.252;9.592;2022-08-01T01:05:00;21.80;94.40
9049;DHT22;4559;47.252;9.592;2022-08-01T01:10:15;21.80;94.20
9049;DHT22;4559;47.252;9.592;2022-08-01T01:12:51;21.80;94.20
9049;DHT22;4559;47.252;9.592;2022-08-01T01:15:26;21.80;94.20
9049;DHT22;4559;47.252;9.592;2022-08-01T01:18:02;21.80;94.20
9049;DHT22;4559;47.252;9.592;2022-08-01T01:20:32;21.80;94.20
9049;DHT22;4559;47.252;9.592;2022-08-01T01:23:28;21.80;94.30
9049;DHT22;4559;47.252;9.592;2022-08-01T01:29:06;21.70;94.00
9049;DHT22;4559;47.252;9.592;2022-08-01T01:34:28;21.60;94.00
9049;DHT22;4559;47.252;9.592;2022-08-01T01:36:54;21.60;94.00
9049;DHT22;4559;47.252;9.592;2022-08-01T01:39:24;21.70;94.20
9049;DHT22;4559;47.252;9.592;2022-08-01T01:41:52;21.70;94.40
9049;DHT22;4559;47.252;9.592;2022-08-01T01:44:19;21.70;94.60
9049;DHT22;4559;47.252;9.592;2022-08-01T01:46:45;21.70;94.40
9049;DHT22;4559;47.252;9.592;2022-08-01T01:49:11;21.70;94.40
9049;DHT22;4559;47.252;9.592;2022-08-01T01:51:38;21.70;94.40
9049;DHT22;4559;47.252;9.592;2022-08-01T01:54:07;21.70;94.80
9049;DHT22;4559;47.252;9.592;2022-08-01T01:56:35;21.70;94.70
9049;DHT22;4559;47.252;9.592;2022-08-01T01:59:21;21.70;94.90
9049;DHT22;4559;47.252;9.592;2022-08-01T02:01:51;21.70;94.90
9049;DHT22;4559;47.252;9.592;2022-08-01T02:04:17;21.70;95.10
9049;DHT22;4559;47.252;9.592;2022-08-01T02:06:46;21.70;95.10
9049;DHT22;4559;47.252;9.592;2022-08-01T02:09:14;21.70;95.40
9049;DHT22;4559;47.252;9.592;2022-08-01T02:11:42;21.70;95.30
9049;DHT22;4559;47.252;9.592;2022-08-01T02:14:10;21.60;95.40
9049;DHT22;4559;47.252;9.592;2022-08-01T02:16:37;21.60;95.70
9049;DHT22;4559;47.252;9.592;2022-08-01T02:19:04;21.60;95.10
9049;DHT22;4559;47.252;9.592;2022-08-01T02:21:37;21.60;95.10
9049;DHT22;4559;47.252;9.592;2022-08-01T02:26:47;21.60;95.70
9049;DHT22;4559;47.252;9.592;2022-08-01T02:29:19;21.50;95.60
9049;DHT22;4559;47.252;9.592;2022-08-01T02:31:47;21.50;95.90
9049;DHT22;4559;47.252;9.592;2022-08-01T02:34:17;21.50;96.00
9049;DHT22;4559;47.252;9.592;2022-08-01T02:36:44;21.50;96.30
9049;DHT22;4559;47.252;9.592;2022-08-01T02:39:13;21.40;96.40
9049;DHT22;4559;47.252;9.592;2022-08-01T02:41:42;21.40;96.50
9049;DHT22;4559;47.252;9.592;2022-08-01T02:44:12;21.40;96.80
9049;DHT22;4559;47.252;9.592;2022-08-01T02:46:48;21.40;96.90
9049;DHT22;4559;47.252;9.592;2022-08-01T02:49:16;21.40;97.10
9049;DHT22;4559;47.252;9.592;2022-08-01T02:51:45;21.40;97.10
9049;DHT22;4559;47.252;9.592;2022-08-01T02:54:12;21.30;97.00
9049;DHT22;4559;47.252;9.592;2022-08-01T02:56:40;21.30;97.00
9049;DHT22;4559;47.252;9.592;2022-08-01T02:59:09;21.30;97.20
9049;DHT22;4559;47.252;9.592;2022-08-01T03:01:38;21.30;97.40
9049;DHT22;4559;47.252;9.592;2022-08-01T03:04:04;21.20;97.60
9049;DHT22;4559;47.252;9.592;2022-08-01T03:06:32;21.20;97.70
9049;DHT22;4559;47.252;9.592;2022-08-01T03:09:00;21.20;97.80
9049;DHT22;4559;47.252;9.592;2022-08-01T03:11:27;21.20;98.10
9049;DHT22;4559;47.252;9.592;2022-08-01T03:13:55;21.20;98.20
9049;DHT22;4559;47.252;9.592;2022-08-01T03:16:23;21.10;98.40
9049;DHT22;4559;47.252;9.592;2022-08-01T03:18:53;21.10;98.40
9049;DHT22;4559;47.252;9.592;2022-08-01T03:21:21;21.10;98.80
9049;DHT22;4559;47.252;9.592;2022-08-01T03:23:50;21.00;98.70
9049;DHT22;4559;47.252;9.592;2022-08-01T03:26:17;21.00;98.80
9049;DHT22;4559;47.252;9.592;2022-08-01T03:28:46;21.00;98.80
9049;DHT22;4559;47.252;9.592;2022-08-01T03:31:13;21.00;98.90
9049;DHT22;4559;47.252;9.592;2022-08-01T03:33:39;20.90;98.90
9049;DHT22;4559;47.252;9.592;2022-08-01T03:36:08;20.90;99.00
9049;DHT22;4559;47.252;9.592;2022-08-01T03:38:36;20.90;99.20
9049;DHT22;4559;47.252;9.592;2022-08-01T03:41:15;20.90;99.30
9049;DHT22;4559;47.252;9.592;2022-08-01T03:43:46;20.80;99.30
9049;DHT22;4559;47.252;9.592;2022-08-01T03:46:26;20.80;99.40
9049;DHT22;4559;47.252;9.592;2022-08-01T03:48:55;20.80;99.50
9049;DHT22;4559;47.252;9.592;2022-08-01T03:51:24;20.80;99.70
9049;DHT22;4559;47.252;9.592;2022-08-01T03:53:51;20.70;99.80
9049;DHT22;4559;47.252;9.592;2022-08-01T03:56:19;20.70;99.80
9049;DHT22;4559;47.252;9.592;2022-08-01T03:58:46;20.70;99.90
9049;DHT22;4559;47.252;9.592;2022-08-01T04:01:12;20.60;99.90
9049;DHT22;4559;47.252;9.592;2022-08-01T04:03:38;20.60;99.90
9049;DHT22;4559;47.252;9.592;2022-08-01T04:06:05;20.60;99.90
9049;DHT22;4559;47.252;9.592;2022-08-01T04:08:42;20.60;99.90
9049;DHT22;4559;47.252;9.592;2022-08-01T04:11:09;20.60;99.90
9049;DHT22;4559;47.252;9.592;2022-08-01T04:13:35;20.50;99.90
9049;DHT22;4559;47.252;9.592;2022-08-01T04:16:01;20.50;99.90
9049;DHT22;4559;47.252;9.592;2022-08-01T04:18:26;20.50;99.90
9049;DHT22;4559;47.252;9.592;2022-08-01T04:20:52;20.40;99.90
9049;DHT22;4559;47.252;9.592;2022-08-01T04:23:22;20.40;99.90
9049;DHT22;4559;47.252;9.592;2022-08-01T04:25:50;20.40;99.90
9049;DHT22;4559;47.252;9.592;2022-08-01T04:28:17;20.40;99.90
9049;DHT22;4559;47.252;9.592;2022-08-01T04:30:46;20.40;99.90
9049;DHT22;4559;47.252;9.592;2022-08-01T04:33:15;20.40;99.90
9049;DHT22;4559;47.252;9.592;2022-08-01T04:35:44;20.40;99.90
9049;DHT22;4559;47.252;9.592;2022-08-01T04:38:12;20.30;99.90
9049;DHT22;4559;47.252;9.592;2022-08-01T04:40:40;20.30;99.90
9049;DHT22;4559;47.252;9.592;2022-08-01T04:43:07;20.30;99.90
9049;DHT22;4559;47.252;9.592;2022-08-01T04:45:33;20.30;99.90
9049;DHT22;4559;47.252;9.592;2022-08-01T04:47:59;20.30;99.90
9049;DHT22;4559;47.252;9.592;2022-08-01T04:50:26;20.30;99.90
9049;DHT22;4559;47.252;9.592;2022-08-01T04:52:51;20.30;99.90
9049;DHT22;4559;47.252;9.592;2022-08-01T04:55:17;20.30;99.90
9049;DHT22;4559;47.252;9.592;2022-08-01T04:57:44;20.40;99.90
9049;DHT22;4559;47.252;9.592;2022-08-01T05:00:12;20.40;99.90
9049;DHT22;4559;47.252;9.592;2022-08-01T05:02:38;20.40;99.90
9049;DHT22;4559;47.252;9.592;2022-08-01T05:05:04;20.40;99.90
9049;DHT22;4559;47.252;9.592;2022-08-01T05:07:32;20.40;99.90
9049;DHT22;4559;47.252;9.592;2022-08-01T05:09:58;20.50;99.90
9049;DHT22;4559;47.252;9.592;2022-08-01T05:12:23;20.50;99.90
9049;DHT22;4559;47.252;9.592;2022-08-01T05:14:49;20.60;99.90
9049;DHT22;4559;47.252;9.592;2022-08-01T05:17:15;20.60;99.90
9049;DHT22;4559;47.252;9.592;2022-08-01T05:19:41;20.60;99.90
9049;DHT22;4559;47.252;9.592;2022-08-01T05:22:09;20.60;99.90
9049;DHT22;4559;47.252;9.592;2022-08-01T05:24:36;20.70;99.90
9049;DHT22;4559;47.252;9.592;2022-08-01T05:27:03;20.70;99.90
9049;DHT22;4559;47.252;9.592;2022-08-01T05:29:29;20.80;99.90
9049;DHT22;4559;47.252;9.592;2022-08-01T05:31:55;20.80;99.90
9049;DHT22;4559;47.252;9.592;2022-08-01T05:34:22;20.80;99.90
9049;DHT22;4559;47.252;9.592;2022-08-01T05:36:47;20.90;99.90
9049;DHT22;4559;47.252;9.592;2022-08-01T05:39:13;20.90;99.90
9049;DHT22;4559;47.252;9.592;2022-08-01T05:41:39;21.00;99.90
9049;DHT22;4559;47.252;9.592;2022-08-01T05:44:06;21.00;99.90
9049;DHT22;4559;47.252;9.592;2022-08-01T05:46:32;21.00;99.90
9049;DHT22;4559;47.252;9.592;2022-08-01T05:48:59;21.10;99.90
9049;DHT22;4559;47.252;9.592;2022-08-01T05:51:26;21.10;99.90
9049;DHT22;4559;47.252;9.592;2022-08-01T05:53:52;21.20;99.90
9049;DHT22;4559;47.252;9.592;2022-08-01T05:56:19;21.20;99.90
9049;DHT22;4559;47.252;9.592;2022-08-01T05:58:45;21.30;99.90
9049;DHT22;4559;47.252;9.592;2022-08-01T06:01:11;21.40;99.90
9049;DHT22;4559;47.252;9.592;2022-08-01T06:03:37;21.40;99.90
9049;DHT22;4559;47.252;9.592;2022-08-01T06:06:03;21.40;99.90
9049;DHT22;4559;47.252;9.592;2022-08-01T06:08:29;21.50;99.90
9049;DHT22;4559;47.252;9.592;2022-08-01T06:10:55;21.60;99.90
9049;DHT22;4559;47.252;9.592;2022-08-01T06:13:21;21.70;99.90
9049;DHT22;4559;47.252;9.592;2022-08-01T06:15:47;21.80;99.90
9049;DHT22;4559;47.252;9.592;2022-08-01T06:18:13;21.80;99.90
9049;DHT22;4559;47.252;9.592;2022-08-01T06:20:38;21.90;99.90
9049;DHT22;4559;47.252;9.592;2022-08-01T06:23:04;22.00;99.90
9049;DHT22;4559;47.252;9.592;2022-08-01T06:25:30;22.00;99.90
9049;DHT22;4559;47.252;9.592;2022-08-01T06:27:56;22.10;99.90
9049;DHT22;4559;47.252;9.592;2022-08-01T06:30:21;22.20;99.90
9049;DHT22;4559;47.252;9.592;2022-08-01T06:32:47;22.20;99.90
9049;DHT22;4559;47.252;9.592;2022-08-01T06:35:14;22.30;99.90
9049;DHT22;4559;47.252;9.592;2022-08-01T06:37:39;22.30;99.90
9049;DHT22;4559;47.252;9.592;2022-08-01T06:40:07;22.40;99.90
9049;DHT22;4559;47.252;9.592;2022-08-01T06:42:34;22.60;99.90
9049;DHT22;4559;47.252;9.592;2022-08-01T06:45:03;22.70;99.90
9049;DHT22;4559;47.252;9.592;2022-08-01T06:47:29;22.70;99.90
9049;DHT22;4559;47.252;9.592;2022-08-01T06:49:54;22.80;99.90
9049;DHT22;4559;47.252;9.592;2022-08-01T06:52:20;22.90;99.90
9049;DHT22;4559;47.252;9.592;2022-08-01T06:54:46;23.00;99.90
9049;DHT22;4559;47.252;9.592;2022-08-01T06:57:11;23.20;99.90
9049;DHT22;4559;47.252;9.592;2022-08-01T06:59:37;23.40;99.90
9049;DHT22;4559;47.252;9.592;2022-08-01T07:02:03;23.60;99.90
9049;DHT22;4559;47.252;9.592;2022-08-01T07:04:29;23.70;99.40
9049;DHT22;4559;47.252;9.592;2022-08-01T07:06:55;23.90;99.10
9049;DHT22;4559;47.252;9.592;2022-08-01T07:09:21;24.00;98.80
9049;DHT22;4559;47.252;9.592;2022-08-01T07:11:47;24.20;99.40
9049;DHT22;4559;47.252;9.592;2022-08-01T07:14:12;24.40;99.80
9049;DHT22;4559;47.252;9.592;2022-08-01T07:16:38;24.50;99.30
9049;DHT22;4559;47.252;9.592;2022-08-01T07:19:03;24.60;98.50
9049;DHT22;4559;47.252;9.592;2022-08-01T07:21:29;24.80;98.40
9049;DHT22;4559;47.252;9.592;2022-08-01T07:23:55;24.90;98.20
9049;DHT22;4559;47.252;9.592;2022-08-01T07:26:21;25.00;97.90
9049;DHT22;4559;47.252;9.592;2022-08-01T07:28:47;25.10;98.00
9049;DHT22;4559;47.252;9.592;2022-08-01T07:31:12;25.30;97.80
9049;DHT22;4559;47.252;9.592;2022-08-01T07:33:39;25.30;97.10
9049;DHT22;4559;47.252;9.592;2022-08-01T07:36:05;25.40;96.80
9049;DHT22;4559;47.252;9.592;2022-08-01T07:38:30;25.40;96.50
9049;DHT22;4559;47.252;9.592;2022-08-01T07:40:57;25.40;96.40
9049;DHT22;4559;47.252;9.592;2022-08-01T07:43:23;25.40;97.20
9049;DHT22;4559;47.252;9.592;2022-08-01T07:45:48;25.50;97.20
9049;DHT22;4559;47.252;9.592;2022-08-01T07:48:14;25.50;96.70
9049;DHT22;4559;47.252;9.592;2022-08-01T07:50:39;25.70;97.00
9049;DHT22;4559;47.252;9.592;2022-08-01T07:53:05;25.80;97.10
9049;DHT22;4559;47.252;9.592;2022-08-01T07:55:31;26.00;96.50
9049;DHT22;4559;47.252;9.592;2022-08-01T07:57:56;26.10;96.10
9049;DHT22;4559;47.252;9.592;2022-08-01T08:00:22;26.00;95.90
9049;DHT22;4559;47.252;9.592;2022-08-01T08:02:48;26.20;96.20
9049;DHT22;4559;47.252;9.592;2022-08-01T08:05:13;26.40;96.20
9049;DHT22;4559;47.252;9.592;2022-08-01T08:07:39;26.50;95.50
9049;DHT22;4559;47.252;9.592;2022-08-01T08:10:05;26.60;95.20
9049;DHT22;4559;47.252;9.592;2022-08-01T08:12:31;26.60;94.60
9049;DHT22;4559;47.252;9.592;2022-08-01T08:14:57;26.80;95.00
9049;DHT22;4559;47.252;9.592;2022-08-01T08:17:26;26.80;94.00
9049;DHT22;4559;47.252;9.592;2022-08-01T08:19:52;26.90;93.80
9049;DHT22;4559;47.252;9.592;2022-08-01T08:22:18;27.00;93.20
9049;DHT22;4559;47.252;9.592;2022-08-01T08:24:43;27.20;93.10
9049;DHT22;4559;47.252;9.592;2022-08-01T08:27:09;27.30;93.00
9049;DHT22;4559;47.252;9.592;2022-08-01T08:29:35;27.40;92.10
9049;DHT22;4559;47.252;9.592;2022-08-01T08:32:01;27.50;92.30
9049;DHT22;4559;47.252;9.592;2022-08-01T08:34:28;27.70;91.90
9049;DHT22;4559;47.252;9.592;2022-08-01T08:36:54;27.90;91.40
9049;DHT22;4559;47.252;9.592;2022-08-01T08:39:22;27.90;92.20
9049;DHT22;4559;47.252;9.592;2022-08-01T08:41:48;28.10;91.30
9049;DHT22;4559;47.252;9.592;2022-08-01T08:44:14;28.20;90.10
9049;DHT22;4559;47.252;9.592;2022-08-01T08:46:45;28.30;90.30
9049;DHT22;4559;47.252;9.592;2022-08-01T08:49:15;28.40;90.50
9049;DHT22;4559;47.252;9.592;2022-08-01T08:51:42;28.50;90.50
9049;DHT22;4559;47.252;9.592;2022-08-01T08:54:10;28.60;89.30
9049;DHT22;4559;47.252;9.592;2022-08-01T08:56:37;28.70;88.00
9049;DHT22;4559;47.252;9.592;2022-08-01T08:59:03;28.80;89.40
9049;DHT22;4559;47.252;9.592;2022-08-01T09:01:31;28.80;88.60
9049;DHT22;4559;47.252;9.592;2022-08-01T09:04:02;28.90;88.60
9049;DHT22;4559;47.252;9.592;2022-08-01T09:06:28;29.00;89.20
9049;DHT22;4559;47.252;9.592;2022-08-01T09:08:55;29.00;89.60
9049;DHT22;4559;47.252;9.592;2022-08-01T09:11:21;29.20;87.90
9049;DHT22;4559;47.252;9.592;2022-08-01T09:16:33;29.50;87.00
9049;DHT22;4559;47.252;9.592;2022-08-01T09:19:16;29.50;86.20
9049;DHT22;4559;47.252;9.592;2022-08-01T09:21:59;29.60;87.80
9049;DHT22;4559;47.252;9.592;2022-08-01T09:24:30;29.80;89.20
9049;DHT22;4559;47.252;9.592;2022-08-01T09:26:56;29.80;88.50
9049;DHT22;4559;47.252;9.592;2022-08-01T09:29:25;29.80;86.30
9049;DHT22;4559;47.252;9.592;2022-08-01T09:31:51;29.90;87.10
9049;DHT22;4559;47.252;9.592;2022-08-01T09:34:28;30.00;85.40
9049;DHT22;4559;47.252;9.592;2022-08-01T09:36:57;30.00;87.10
9049;DHT22;4559;47.252;9.592;2022-08-01T09:39:33;30.00;84.50
9049;DHT22;4559;47.252;9.592;2022-08-01T09:42:18;30.10;87.30
9049;DHT22;4559;47.252;9.592;2022-08-01T09:44:44;30.20;86.30
9049;DHT22;4559;47.252;9.592;2022-08-01T09:47:11;30.30;84.90
9049;DHT22;4559;47.252;9.592;2022-08-01T09:49:39;30.40;83.70
9049;DHT22;4559;47.252;9.592;2022-08-01T09:52:15;30.40;82.60
9049;DHT22;4559;47.252;9.592;2022-08-01T09:54:43;30.50;84.00
9049;DHT22;4559;47.252;9.592;2022-08-01T09:57:17;30.50;82.80
9049;DHT22;4559;47.252;9.592;2022-08-01T09:59:45;30.50;82.70
9049;DHT22;4559;47.252;9.592;2022-08-01T10:02:13;30.70;81.60
9049;DHT22;4559;47.252;9.592;2022-08-01T10:04:48;30.80;79.20
9049;DHT22;4559;47.252;9.592;2022-08-01T10:07:14;30.80;77.10
9049;DHT22;4559;47.252;9.592;2022-08-01T10:09:44;30.90;80.80
9049;DHT22;4559;47.252;9.592;2022-08-01T10:12:12;30.90;80.10
9049;DHT22;4559;47.252;9.592;2022-08-01T10:14:39;31.00;79.10
9049;DHT22;4559;47.252;9.592;2022-08-01T10:17:08;31.00;76.70
9049;DHT22;4559;47.252;9.592;2022-08-01T10:19:36;31.10;76.40
9049;DHT22;4559;47.252;9.592;2022-08-01T10:22:05;31.20;74.50
9049;DHT22;4559;47.252;9.592;2022-08-01T10:24:38;31.20;74.10
9049;DHT22;4559;47.252;9.592;2022-08-01T10:27:07;31.20;74.70
9049;DHT22;4559;47.252;9.592;2022-08-01T10:29:58;31.30;73.50
9049;DHT22;4559;47.252;9.592;2022-08-01T10:32:30;31.40;72.60
9049;DHT22;4559;47.252;9.592;2022-08-01T10:34:56;31.40;73.10
9049;DHT22;4559;47.252;9.592;2022-08-01T10:37:24;31.50;76.20
9049;DHT22;4559;47.252;9.592;2022-08-01T10:39:51;31.60;76.10
9049;DHT22;4559;47.252;9.592;2022-08-01T10:42:18;31.60;75.40
9049;DHT22;4559;47.252;9.592;2022-08-01T10:44:44;31.70;72.20
9049;DHT22;4559;47.252;9.592;2022-08-01T10:47:14;31.80;71.70
9049;DHT22;4559;47.252;9.592;2022-08-01T10:50:04;31.80;72.80
9049;DHT22;4559;47.252;9.592;2022-08-01T10:52:32;31.80;74.40
9049;DHT22;4559;47.252;9.592;2022-08-01T10:55:07;31.90;73.10
9049;DHT22;4559;47.252;9.592;2022-08-01T10:57:46;32.00;73.70
9049;DHT22;4559;47.252;9.592;2022-08-01T11:00:22;32.10;72.10
9049;DHT22;4559;47.252;9.592;2022-08-01T11:02:59;32.10;72.90
9049;DHT22;4559;47.252;9.592;2022-08-01T11:05:35;32.30;73.70
9049;DHT22;4559;47.252;9.592;2022-08-01T11:08:11;32.30;73.10
9049;DHT22;4559;47.252;9.592;2022-08-01T11:10:47;32.40;72.10
9049;DHT22;4559;47.252;9.592;2022-08-01T11:13:13;32.50;70.90
9049;DHT22;4559;47.252;9.592;2022-08-01T11:15:40;32.50;71.50
9049;DHT22;4559;47.252;9.592;2022-08-01T11:18:29;32.50;71.10
9049;DHT22;4559;47.252;9.592;2022-08-01T11:20:58;32.60;70.20
9049;DHT22;4559;47.252;9.592;2022-08-01T11:23:25;32.60;69.10
9049;DHT22;4559;47.252;9.592;2022-08-01T11:28:26;32.60;70.50
9049;DHT22;4559;47.252;9.592;2022-08-01T11:30:54;32.70;67.70
9049;DHT22;4559;47.252;9.592;2022-08-01T11:38:37;32.80;68.40
9049;DHT22;4559;47.252;9.592;2022-08-01T11:41:21;32.90;65.10
9049;DHT22;4559;47.252;9.592;2022-08-01T11:44:19;32.90;66.10
9049;DHT22;4559;47.252;9.592;2022-08-01T11:49:29;33.00;65.90
9049;DHT22;4559;47.252;9.592;2022-08-01T11:57:07;33.00;65.90
9049;DHT22;4559;47.252;9.592;2022-08-01T11:59:39;33.10;67.40
9049;DHT22;4559;47.252;9.592;2022-08-01T12:02:27;33.10;67.70
9049;DHT22;4559;47.252;9.592;2022-08-01T12:07:31;33.10;66.80
9049;DHT22;4559;47.252;9.592;2022-08-01T12:10:03;33.20;64.70
9049;DHT22;4559;47.252;9.592;2022-08-01T12:12:31;33.30;64.10
9049;DHT22;4559;47.252;9.592;2022-08-01T12:14:58;33.20;65.20
9049;DHT22;4559;47.252;9.592;2022-08-01T12:17:37;33.20;66.90
9049;DHT22;4559;47.252;9.592;2022-08-01T12:20:05;33.30;67.20
9049;DHT22;4559;47.252;9.592;2022-08-01T12:22:34;33.30;65.20
9049;DHT22;4559;47.252;9.592;2022-08-01T12:25:07;33.30;66.40
9049;DHT22;4559;47.252;9.592;2022-08-01T12:27:33;33.30;64.90
9049;DHT22;4559;47.252;9.592;2022-08-01T12:30:00;33.30;63.90
9049;DHT22;4559;47.252;9.592;2022-08-01T12:32:31;33.30;63.50
9049;DHT22;4559;47.252;9.592;2022-08-01T12:35:20;33.30;64.20
9049;DHT22;4559;47.252;9.592;2022-08-01T12:37:50;33.30;64.40
9049;DHT22;4559;47.252;9.592;2022-08-01T12:40:24;33.30;66.30
9049;DHT22;4559;47.252;9.592;2022-08-01T12:42:56;33.40;65.30
9049;DHT22;4559;47.252;9.592;2022-08-01T12:45:27;33.50;65.80
9049;DHT22;4559;47.252;9.592;2022-08-01T12:47:54;33.50;65.30
9049;DHT22;4559;47.252;9.592;2022-08-01T12:50:22;33.50;63.30
9049;DHT22;4559;47.252;9.592;2022-08-01T12:52:49;33.50;64.90
9049;DHT22;4559;47.252;9.592;2022-08-01T12:57:44;33.50;64.90
9049;DHT22;4559;47.252;9.592;2022-08-01T13:00:24;33.50;63.40
9049;DHT22;4559;47.252;9.592;2022-08-01T13:03:00;33.40;64.30
9049;DHT22;4559;47.252;9.592;2022-08-01T13:05:26;33.30;64.00
9049;DHT22;4559;47.252;9.592;2022-08-01T13:07:52;33.30;63.60
9049;DHT22;4559;47.252;9.592;2022-08-01T13:10:26;33.30;63.40
9049;DHT22;4559;47.252;9.592;2022-08-01T13:12:55;33.40;63.90
9049;DHT22;4559;47.252;9.592;2022-08-01T13:15:28;33.30;63.90
9049;DHT22;4559;47.252;9.592;2022-08-01T13:17:58;33.40;63.60
9049;DHT22;4559;47.252;9.592;2022-08-01T13:20:32;33.30;63.70
9049;DHT22;4559;47.252;9.592;2022-08-01T13:23:11;33.30;64.50
9049;DHT22;4559;47.252;9.592;2022-08-01T13:25:51;33.30;64.30
9049;DHT22;4559;47.252;9.592;2022-08-01T13:28:19;33.30;61.90
9049;DHT22;4559;47.252;9.592;2022-08-01T13:33:18;33.30;62.90
9049;DHT22;4559;47.252;9.592;2022-08-01T13:35:43;33.20;62.90
9049;DHT22;4559;47.252;9.592;2022-08-01T13:38:09;33.20;63.70
9049;DHT22;4559;47.252;9.592;2022-08-01T13:40:35;33.20;63.90
9049;DHT22;4559;47.252;9.592;2022-08-01T13:43:00;33.20;62.90
9049;DHT22;4559;47.252;9.592;2022-08-01T13:45:26;33.20;63.90
9049;DHT22;4559;47.252;9.592;2022-08-01T13:47:51;33.20;63.30
9049;DHT22;4559;47.252;9.592;2022-08-01T13:50:17;33.20;63.20
9049;DHT22;4559;47.252;9.592;2022-08-01T13:52:43;33.20;62.50
9049;DHT22;4559;47.252;9.592;2022-08-01T13:55:08;33.20;61.40
9049;DHT22;4559;47.252;9.592;2022-08-01T13:57:34;33.20;63.60
9049;DHT22;4559;47.252;9.592;2022-08-01T14:00:00;33.00;60.60
9049;DHT22;4559;47.252;9.592;2022-08-01T14:02:26;32.90;61.50
9049;DHT22;4559;47.252;9.592;2022-08-01T14:04:53;32.80;61.90
9049;DHT22;4559;47.252;9.592;2022-08-01T14:07:20;32.70;60.70
9049;DHT22;4559;47.252;9.592;2022-08-01T14:09:45;32.70;62.30
9049;DHT22;4559;47.252;9.592;2022-08-01T14:12:11;32.90;62.20
9049;DHT22;4559;47.252;9.592;2022-08-01T14:14:37;32.90;63.40
9049;DHT22;4559;47.252;9.592;2022-08-01T14:17:04;32.90;62.70
9049;DHT22;4559;47.252;9.592;2022-08-01T14:19:29;32.90;61.80
9049;DHT22;4559;47.252;9.592;2022-08-01T14:21:56;32.90;60.20
9049;DHT22;4559;47.252;9.592;2022-08-01T14:24:22;32.70;60.40
9049;DHT22;4559;47.252;9.592;2022-08-01T14:26:48;32.40;60.70
9049;DHT22;4559;47.252;9.592;2022-08-01T14:29:14;32.00;60.40
9049;DHT22;4559;47.252;9.592;2022-08-01T14:31:40;31.80;61.40
9049;DHT22;4559;47.252;9.592;2022-08-01T14:34:05;31.60;62.60
9049;DHT22;4559;47.252;9.592;2022-08-01T14:36:31;31.50;62.30
9049;DHT22;4559;47.252;9.592;2022-08-01T14:38:58;31.50;62.40
9049;DHT22;4559;47.252;9.592;2022-08-01T14:41:23;31.60;62.00
9049;DHT22;4559;47.252;9.592;2022-08-01T14:43:49;31.70;60.40
9049;DHT22;4559;47.252;9.592;2022-08-01T14:46:14;31.70;61.90
9049;DHT22;4559;47.252;9.592;2022-08-01T14:48:40;31.70;61.30
9049;DHT22;4559;47.252;9.592;2022-08-01T14:51:06;31.70;61.30
9049;DHT22;4559;47.252;9.592;2022-08-01T14:53:32;31.80;61.30
9049;DHT22;4559;47.252;9.592;2022-08-01T14:55:59;31.80;62.30
9049;DHT22;4559;47.252;9.592;2022-08-01T14:58:24;31.90;62.00
9049;DHT22;4559;47.252;9.592;2022-08-01T15:00:50;31.90;63.10
9049;DHT22;4559;47.252;9.592;2022-08-01T15:03:20;31.90;62.40
9049;DHT22;4559;47.252;9.592;2022-08-01T15:05:46;31.90;62.00
9049;DHT22;4559;47.252;9.592;2022-08-01T15:08:11;31.90;62.90
9049;DHT22;4559;47.252;9.592;2022-08-01T15:10:37;31.90;63.10
9049;DHT22;4559;47.252;9.592;2022-08-01T15:13:03;31.80;60.90
9049;DHT22;4559;47.252;9.592;2022-08-01T15:15:28;31.80;60.40
9049;DHT22;4559;47.252;9.592;2022-08-01T15:17:55;31.80;58.90
9049;DHT22;4559;47.252;9.592;2022-08-01T15:20:20;31.80;59.40
9049;DHT22;4559;47.252;9.592;2022-08-01T15:22:46;31.80;59.30
9049;DHT22;4559;47.252;9.592;2022-08-01T15:25:13;31.80;59.60
9049;DHT22;4559;47.252;9.592;2022-08-01T15:27:38;31.90;60.10
9049;DHT22;4559;47.252;9.592;2022-08-01T15:30:04;32.00;59.50
9049;DHT22;4559;47.252;9.592;2022-08-01T15:32:30;32.00;60.20
9049;DHT22;4559;47.252;9.592;2022-08-01T15:34:56;32.00;59.60
9049;DHT22;4559;47.252;9.592;2022-08-01T15:37:21;32.00;59.20
9049;DHT22;4559;47.252;9.592;2022-08-01T15:39:47;31.90;59.50
9049;DHT22;4559;47.252;9.592;2022-08-01T15:42:15;31.90;59.30
9049;DHT22;4559;47.252;9.592;2022-08-01T15:44:41;31.90;59.10
9049;DHT22;4559;47.252;9.592;2022-08-01T15:47:08;31.80;59.20
9049;DHT22;4559;47.252;9.592;2022-08-01T15:49:35;31.80;60.90
9049;DHT22;4559;47.252;9.592;2022-08-01T15:52:05;31.80;61.10
9049;DHT22;4559;47.252;9.592;2022-08-01T15:54:31;31.70;60.00
9049;DHT22;4559;47.252;9.592;2022-08-01T15:56:58;31.70;61.20
9049;DHT22;4559;47.252;9.592;2022-08-01T15:59:24;31.60;60.20
9049;DHT22;4559;47.252;9.592;2022-08-01T16:01:49;31.60;59.90
9049;DHT22;4559;47.252;9.592;2022-08-01T16:04:15;31.50;58.80
9049;DHT22;4559;47.252;9.592;2022-08-01T16:06:41;31.50;59.10
9049;DHT22;4559;47.252;9.592;2022-08-01T16:09:07;31.40;58.50
9049;DHT22;4559;47.252;9.592;2022-08-01T16:11:33;31.40;58.20
9049;DHT22;4559;47.252;9.592;2022-08-01T16:13:59;31.40;58.20
9049;DHT22;4559;47.252;9.592;2022-08-01T16:16:26;31.30;57.60
9049;DHT22;4559;47.252;9.592;2022-08-01T16:18:52;31.30;59.40
9049;DHT22;4559;47.252;9.592;2022-08-01T16:21:18;31.30;60.80
9049;DHT22;4559;47.252;9.592;2022-08-01T16:23:44;31.20;60.50
9049;DHT22;4559;47.252;9.592;2022-08-01T16:26:10;31.10;59.90
9049;DHT22;4559;47.252;9.592;2022-08-01T16:28:35;31.10;61.10
9049;DHT22;4559;47.252;9.592;2022-08-01T16:31:01;31.00;60.60
9049;DHT22;4559;47.252;9.592;2022-08-01T16:33:27;31.00;60.60
9049;DHT22;4559;47.252;9.592;2022-08-01T16:35:54;30.90;60.50
9049;DHT22;4559;47.252;9.592;2022-08-01T16:38:19;31.00;61.00
9049;DHT22;4559;47.252;9.592;2022-08-01T16:40:48;30.90;60.40
9049;DHT22;4559;47.252;9.592;2022-08-01T16:43:18;30.90;61.00
9049;DHT22;4559;47.252;9.592;2022-08-01T16:45:44;30.80;61.70